Indianapolis, IN (46274)

3:51 AM EST on January 29, 2015 (GMT -0500)
New Augusta, IN | Change Station
CLOSE
Current Station
Personal Weather Station
Location: Indianapolis, IN
Elevation: 846 ft
Nearby Weather Stations

Elev 846 ft 39.89 °N, 86.24 °W | Updated 3 minutes ago

Overcast
Overcast
35.8 °F
Feels Like 32 °F
N
4.3
Wind Variable Wind from East

Today
High -- | Low -- °F
--% Chance of Precip.
Yesterday
High -- | Low -- °F
Precip. -- in
7:56 AM 6:00 PM
Waxing Gibbous, 72% visible
Pressure 29.92 in
Visibility 10.0 miles
Clouds Mostly Cloudy 8500 ft
Overcast 12000 ft
Windchill 32 °F
Dew Point 22 °F
Humidity 56%
Rainfall 0.00 in
Snow Depth Not available.
UV 0 out of 12
Pollen .10 out of 12
Air Quality Not available.
Flu Activity Not available.
METAR KIND 290754Z 16011KT 10SM BKN085 OVC120 01/M07 A2990 RMK AO2 SLP131 T00111072

More Conditions Fewer Conditions

Pressure 29.92 in
Visibility 10.0 miles
Clouds Mostly Cloudy 8500 ft
Overcast 12000 ft
Windchill 32 °F
Dew Point 22 °F
Humidity 56%
Rainfall 0.00 in
Snow Depth Not available.
UV 0 out of 12
Pollen .10 out of 12
Air Quality Not available.
Flu Activity Not available.
METAR KIND 290754Z 16011KT 10SM BKN085 OVC120 01/M07 A2990 RMK AO2 SLP131 T00111072

More Conditions Fewer Conditions

10-Day Weather Forecast

Almanac

Astronomy

Jan. 29, 2015 Rise Set
Actual Time
Civil Twilight
Nautical Twilight
Astronomical Twilight
Moon
Length of Visible Light
Length of Day
Tomorrow will be .
, % of the Moon is Illuminated

Today's Extremes

State Highs State Lows

Community

WunderPhotos

Upload Photos

1,791,389 photos uploaded!

WunderBlogs® & News

Nearby

Air Quality

  Air Quality AQ Index Pollutant
Not available.

Snow Depth

Station Depth Elevation

Earthquake Activity

City Distance Mag. Time & Date
Minimum magnitude displayed is 2.5.

Coastal Water Temperatures

Place Temperature

Nearby Weather Stations